Time;durP1;ratioP1;P1;durP2;ratioP2;P2;SDS_P1;SDS_P2;PMS_P1;PMS_P2;Temp;Humidity;BMP_temperature;BMP_pressure;BME280_temperature;BME280_humidity;BME280_pressure;Samples;Min_cycle;Max_cycle;Signal;HPM_P1;HPM_P2
2023/07/10 00:01:14;;;;;;;;;;;;;;;16.58;100.00;101090.98;109975;1238;74336;-69
2023/07/10 00:03:43;;;;;;;;;;;;;;;16.51;100.00;101092.34;109732;1242;57672;-71
2023/07/10 00:06:13;;;;;;;;;;;;;;;16.41;100.00;101093.26;109937;1238;61027;-70
2023/07/10 00:08:42;;;;;;;;;;;;;;;16.34;100.00;101093.88;110035;1238;73249;-70
2023/07/10 00:11:26;;;;;;;;;;;;;;;16.26;100.00;101094.73;109915;1238;72146;-70
2023/07/10 00:13:55;;;;;;;;;;;;;;;16.22;100.00;101090.42;109901;1238;70231;-71
2023/07/10 00:16:25;;;;;;;;;;;;;;;16.25;100.00;101089.80;109907;1238;63596;-70
2023/07/10 00:18:53;;;;;;;;;;;;;;;16.33;100.00;101088.11;110026;1240;60990;-71
2023/07/10 00:21:22;;;;;;;;;;;;;;;16.49;100.00;101083.91;110057;1238;57681;-70
2023/07/10 00:23:50;;;;;;;;;;;;;;;16.54;100.00;101085.38;109908;1238;73305;-70
2023/07/10 00:26:24;;;;;;;;;;;;;;;16.59;100.00;101084.77;110028;1238;61871;-70
2023/07/10 00:28:55;;;;;;;;;;;;;;;16.57;100.00;101086.09;109623;1239;60743;-70
2023/07/10 00:31:26;;;;;;;;;;;;;;;16.53;100.00;101084.43;109907;1238;74407;-70
2023/07/10 00:33:55;;;;;;;;;;;;;;;16.53;100.00;101079.80;109773;1241;62614;-70
2023/07/10 00:36:29;;;;;;;;;;;;;;;16.57;100.00;101081.70;109894;1238;57781;-70
2023/07/10 00:39:20;;;;;;;;;;;;;;;16.56;100.00;101077.82;109879;1238;62035;-70
2023/07/10 00:42:09;;;;;;;;;;;;;;;16.55;100.00;101078.79;109910;1242;71945;-70
2023/07/10 00:44:41;;;;;;;;;;;;;;;16.46;100.00;101072.71;109938;1238;59424;-70
2023/07/10 00:47:21;;;;;;;;;;;;;;;16.40;100.00;101074.31;109834;1238;63118;-70
2023/07/10 00:49:50;;;;;;;;;;;;;;;16.47;100.00;101068.95;109775;1241;61727;-70
2023/07/10 00:52:24;;;;;;;;;;;;;;;16.54;100.00;101064.77;109869;1238;60882;-70
2023/07/10 00:54:56;;;;;;;;;;;;;;;16.69;100.00;101067.46;109786;1238;73815;-71
2023/07/10 00:57:33;;;;;;;;;;;;;;;16.66;100.00;101072.48;109921;1238;72497;-71
2023/07/10 01:00:17;;;;;;;;;;;;;;;16.56;100.00;101069.13;109942;1238;59683;-71
2023/07/10 01:02:46;;;;;;;;;;;;;;;16.52;100.00;101069.25;109883;1242;71857;-71
2023/07/10 01:05:17;;;;;;;;;;;;;;;16.61;100.00;101067.52;109719;1242;63521;-70
2023/07/10 01:07:53;;;;;;;;;;;;;;;16.59;100.00;101063.63;109811;1242;57728;-71
2023/07/10 01:10:22;;;;;;;;;;;;;;;16.49;100.00;101065.59;109992;1238;73503;-69
2023/07/10 01:12:51;;;;;;;;;;;;;;;16.44;100.00;101070.29;109916;1242;62225;-70
2023/07/10 01:15:20;;;;;;;;;;;;;;;16.37;100.00;101073.89;109963;1239;59281;-70
2023/07/10 01:17:49;;;;;;;;;;;;;;;16.29;100.00;101075.36;109977;1241;62229;-70
2023/07/10 01:20:49;;;;;;;;;;;;;;;16.22;100.00;101076.32;110045;1241;61882;-70
2023/07/10 01:23:18;;;;;;;;;;;;;;;16.15;100.00;101077.47;110115;1242;57841;-71
2023/07/10 01:25:54;;;;;;;;;;;;;;;16.09;100.00;101076.95;110017;1242;61978;-72
2023/07/10 01:28:23;;;;;;;;;;;;;;;16.26;100.00;101075.92;110063;1238;62159;-71
2023/07/10 01:30:55;;;;;;;;;;;;;;;16.32;100.00;101076.84;109853;1242;59793;-69
2023/07/10 01:33:31;;;;;;;;;;;;;;;16.30;100.00;101078.75;110006;1238;73845;-68
2023/07/10 01:36:00;;;;;;;;;;;;;;;16.16;100.00;101080.52;109946;1241;63394;-70
2023/07/10 01:38:41;;;;;;;;;;;;;;;16.08;100.00;101077.25;109907;1238;60535;-69
2023/07/10 01:41:38;;;;;;;;;;;;;;;16.15;100.00;101075.88;109964;1238;63218;-69
2023/07/10 01:44:28;;;;;;;;;;;;;;;16.40;100.00;101073.98;109923;1238;71999;-69
2023/07/10 01:46:57;;;;;;;;;;;;;;;16.35;100.00;101077.45;109961;1238;70310;-70
2023/07/10 01:49:28;;;;;;;;;;;;;;;16.26;100.00;101081.45;109950;1241;62904;-70
2023/07/10 01:51:59;;;;;;;;;;;;;;;16.21;100.00;101081.19;109961;1241;57678;-69
2023/07/10 01:54:27;;;;;;;;;;;;;;;16.10;100.00;101081.23;109906;1238;61100;-69
2023/07/10 01:56:56;;;;;;;;;;;;;;;16.04;100.00;101081.12;110080;1240;63488;-69
2023/07/10 01:59:24;;;;;;;;;;;;;;;15.93;100.00;101086.52;109975;1238;72190;-70
2023/07/10 02:01:57;;;;;;;;;;;;;;;15.84;100.00;101085.89;109968;1241;59625;-70
2023/07/10 02:04:27;;;;;;;;;;;;;;;15.78;100.00;101092.05;109759;1242;62249;-69
2023/07/10 02:06:55;;;;;;;;;;;;;;;15.73;100.00;101095.46;109742;1243;57224;-70
2023/07/10 02:09:28;;;;;;;;;;;;;;;15.73;100.00;101101.80;110035;1241;57374;-69
2023/07/10 02:11:58;;;;;;;;;;;;;;;15.77;100.00;101102.27;109784;1244;63170;-70
2023/07/10 02:14:26;;;;;;;;;;;;;;;15.87;100.00;101098.41;110019;1238;61620;-69
2023/07/10 02:16:55;;;;;;;;;;;;;;;15.89;100.00;101097.55;109893;1238;59808;-70
2023/07/10 02:19:23;;;;;;;;;;;;;;;15.78;100.00;101106.29;110025;1239;72846;-69
2023/07/10 02:21:52;;;;;;;;;;;;;;;15.80;100.00;101108.54;109919;1242;57606;-72
2023/07/10 02:24:20;;;;;;;;;;;;;;;15.95;100.00;101110.53;110014;1238;60005;-70
2023/07/10 02:26:49;;;;;;;;;;;;;;;16.03;100.00;101111.02;109921;1241;63213;-70
2023/07/10 02:29:17;;;;;;;;;;;;;;;16.02;100.00;101113.83;110023;1238;72122;-70
2023/07/10 02:31:49;;;;;;;;;;;;;;;16.09;100.00;101112.79;109785;1244;59642;-71
2023/07/10 02:34:18;;;;;;;;;;;;;;;16.11;100.00;101116.63;109914;1242;63125;-70
2023/07/10 02:36:46;;;;;;;;;;;;;;;16.06;100.00;101122.34;109939;1242;62665;-70
2023/07/10 02:39:15;;;;;;;;;;;;;;;16.00;100.00;101125.78;109929;1238;62097;-69
2023/07/10 02:41:46;;;;;;;;;;;;;;;15.92;100.00;101128.20;109959;1238;71378;-69
2023/07/10 02:44:14;;;;;;;;;;;;;;;15.88;100.00;101125.70;110014;1242;61459;-69
2023/07/10 02:46:42;;;;;;;;;;;;;;;15.85;100.00;101121.78;109980;1238;70321;-69
2023/07/10 02:49:12;;;;;;;;;;;;;;;15.85;100.00;101126.33;110050;1238;74509;-69
2023/07/10 02:51:40;;;;;;;;;;;;;;;15.86;100.00;101133.95;110027;1241;63234;-70
2023/07/10 02:54:11;;;;;;;;;;;;;;;15.88;100.00;101135.36;109806;1243;57688;-70
2023/07/10 02:56:40;;;;;;;;;;;;;;;15.89;100.00;101130.25;110049;1238;72596;-70
2023/07/10 02:59:08;;;;;;;;;;;;;;;15.89;100.00;101127.27;109939;1241;72543;-70
2023/07/10 03:01:37;;;;;;;;;;;;;;;15.92;100.00;101130.27;110062;1241;59533;-69
2023/07/10 03:04:05;;;;;;;;;;;;;;;15.97;100.00;101129.85;109908;1240;74184;-71
2023/07/10 03:06:34;;;;;;;;;;;;;;;16.09;100.00;101127.20;110012;1241;57749;-71
2023/07/10 03:09:04;;;;;;;;;;;;;;;16.17;100.00;101130.19;109929;1238;60113;-70
2023/07/10 03:11:32;;;;;;;;;;;;;;;16.29;100.00;101130.51;110031;1242;63789;-71
2023/07/10 03:14:02;;;;;;;;;;;;;;;16.38;100.00;101133.03;109927;1242;71374;-69
2023/07/10 03:16:31;;;;;;;;;;;;;;;16.43;100.00;101139.78;109927;1238;70692;-69
2023/07/10 03:19:00;;;;;;;;;;;;;;;16.42;100.00;101136.06;109942;1238;74066;-72
2023/07/10 03:21:29;;;;;;;;;;;;;;;16.47;100.00;101135.23;110006;1242;63524;-69
2023/07/10 03:23:58;;;;;;;;;;;;;;;16.54;100.00;101134.95;109970;1242;57698;-69
2023/07/10 03:26:26;;;;;;;;;;;;;;;16.56;100.00;101126.48;110060;1238;73516;-70
2023/07/10 03:29:03;;;;;;;;;;;;;;;16.71;100.00;101138.69;110068;1242;61779;-70
2023/07/10 03:31:32;;;;;;;;;;;;;;;16.85;100.00;101139.38;109971;1241;59780;-69
2023/07/10 03:34:00;;;;;;;;;;;;;;;16.91;100.00;101141.73;109942;1238;73176;-70
2023/07/10 03:36:29;;;;;;;;;;;;;;;17.01;100.00;101134.35;110023;1242;62267;-70
2023/07/10 03:38:58;;;;;;;;;;;;;;;17.15;100.00;101134.39;110030;1241;57123;-70
2023/07/10 03:41:27;;;;;;;;;;;;;;;17.33;100.00;101130.28;109809;1242;63411;-70
2023/07/10 03:43:55;;;;;;;;;;;;;;;17.50;100.00;101126.27;109919;1238;72163;-70
2023/07/10 03:46:24;;;;;;;;;;;;;;;17.37;100.00;101132.54;110019;1243;59693;-70
2023/07/10 03:48:53;;;;;;;;;;;;;;;17.31;100.00;101132.80;109958;1242;63082;-71
2023/07/10 03:51:21;;;;;;;;;;;;;;;17.37;100.00;101133.10;109847;1243;63056;-70
2023/07/10 03:53:50;;;;;;;;;;;;;;;17.41;100.00;101137.23;109915;1241;57178;-70
2023/07/10 03:56:18;;;;;;;;;;;;;;;17.50;100.00;101149.05;109994;1238;72908;-70
2023/07/10 03:58:47;;;;;;;;;;;;;;;17.58;100.00;101146.76;109780;1241;61804;-70
2023/07/10 04:01:16;;;;;;;;;;;;;;;17.62;100.00;101148.30;109851;1238;71051;-69
2023/07/10 04:03:45;;;;;;;;;;;;;;;17.68;100.00;101147.19;109743;1237;74139;-69
2023/07/10 04:06:15;;;;;;;;;;;;;;;17.80;100.00;101147.38;109907;1239;62284;-69
2023/07/10 04:08:45;;;;;;;;;;;;;;;17.84;100.00;101145.89;109732;1238;57159;-69
2023/07/10 04:11:19;;;;;;;;;;;;;;;17.96;100.00;101152.09;109928;1239;73470;-69
2023/07/10 04:13:49;;;;;;;;;;;;;;;17.93;100.00;101151.84;109924;1239;72733;-69
2023/07/10 04:16:23;;;;;;;;;;;;;;;17.92;100.00;101150.57;109953;1239;60231;-69
2023/07/10 04:18:52;;;;;;;;;;;;;;;17.93;100.00;101151.91;109951;1238;73790;-68
2023/07/10 04:21:24;;;;;;;;;;;;;;;17.93;100.00;101152.54;109767;1242;57388;-69
2023/07/10 04:23:53;;;;;;;;;;;;;;;18.05;100.00;101153.39;110053;1239;60049;-68
2023/07/10 04:26:21;;;;;;;;;;;;;;;18.11;100.00;101152.27;110034;1238;72982;-69
2023/07/10 04:28:53;;;;;;;;;;;;;;;18.20;100.00;101150.66;110098;1239;61921;-69
2023/07/10 04:31:23;;;;;;;;;;;;;;;18.36;100.00;101148.96;109930;1238;67844;-70
2023/07/10 04:33:52;;;;;;;;;;;;;;;18.55;100.00;101148.80;110008;1238;73058;-70
2023/07/10 04:36:21;;;;;;;;;;;;;;;18.68;100.00;101147.56;110132;1239;57105;-70
2023/07/10 04:38:49;;;;;;;;;;;;;;;18.80;100.00;101152.54;110157;1238;60018;-70
2023/07/10 04:41:21;;;;;;;;;;;;;;;18.93;100.00;101149.70;110037;1238;63157;-69
2023/07/10 04:43:50;;;;;;;;;;;;;;;19.04;100.00;101151.35;110106;1239;72101;-69
2023/07/10 04:46:19;;;;;;;;;;;;;;;19.16;100.00;101150.67;109924;1238;69638;-69
2023/07/10 04:48:48;;;;;;;;;;;;;;;19.25;100.00;101149.55;109885;1238;63810;-70
2023/07/10 04:51:18;;;;;;;;;;;;;;;19.39;100.00;101152.05;110084;1239;57156;-70
2023/07/10 04:53:47;;;;;;;;;;;;;;;19.46;100.00;101150.75;110099;1238;57668;-68
2023/07/10 04:56:18;;;;;;;;;;;;;;;19.55;100.00;101152.45;109827;1238;62184;-67
2023/07/10 04:58:57;;;;;;;;;;;;;;;19.68;100.00;101155.16;110035;1238;71257;-69
2023/07/10 05:01:28;;;;;;;;;;;;;;;19.73;100.00;101151.98;110018;1238;60399;-70
2023/07/10 05:03:57;;;;;;;;;;;;;;;19.83;100.00;101154.55;110019;1238;72394;-68
2023/07/10 05:06:27;;;;;;;;;;;;;;;19.81;100.00;101152.91;109928;1238;62287;-68
2023/07/10 05:08:58;;;;;;;;;;;;;;;19.93;100.00;101154.55;109928;1241;60935;-71
2023/07/10 05:11:29;;;;;;;;;;;;;;;20.05;100.00;101156.60;110049;1241;74116;-80
2023/07/10 05:13:58;;;;;;;;;;;;;;;20.12;100.00;101154.23;110099;1239;72590;-75
2023/07/10 05:16:27;;;;;;;;;;;;;;;20.21;100.00;101155.08;110121;1238;72011;-70
2023/07/10 05:18:55;;;;;;;;;;;;;;;20.31;100.00;101154.07;110089;1238;74766;-71
2023/07/10 05:21:24;;;;;;;;;;;;;;;20.36;100.00;101156.98;110038;1241;57216;-71
2023/07/10 05:23:52;;;;;;;;;;;;;;;20.42;100.00;101153.23;110127;1239;60121;-75
2023/07/10 05:26:21;;;;;;;;;;;;;;;20.55;100.00;101155.95;109986;1238;73957;-72
2023/07/10 05:28:50;;;;;;;;;;;;;;;20.62;100.00;101163.13;109991;1238;62329;-72
2023/07/10 05:31:18;;;;;;;;;;;;;;;20.68;100.00;101162.79;109989;1238;70505;-73
2023/07/10 05:33:47;;;;;;;;;;;;;;;20.75;100.00;101165.98;110028;1238;63593;-73
2023/07/10 05:36:17;;;;;;;;;;;;;;;20.84;100.00;101168.67;109695;1243;57614;-73
2023/07/10 05:38:48;;;;;;;;;;;;;;;20.95;100.00;101170.02;110000;1238;57482;-72
2023/07/10 05:41:18;;;;;;;;;;;;;;;21.06;100.00;101170.04;109931;1238;62189;-71
2023/07/10 05:43:47;;;;;;;;;;;;;;;21.19;100.00;101169.13;109933;1238;61715;-73
2023/07/10 05:46:17;;;;;;;;;;;;;;;21.24;100.00;101169.67;109987;1238;70206;-74
2023/07/10 05:48:46;;;;;;;;;;;;;;;21.20;100.00;101170.78;109721;1238;64514;-73
2023/07/10 05:51:15;;;;;;;;;;;;;;;21.23;100.00;101166.06;109915;1241;57171;-73
2023/07/10 05:53:43;;;;;;;;;;;;;;;21.26;100.00;101167.64;110025;1238;61039;-73
2023/07/10 05:56:12;;;;;;;;;;;;;;;21.29;100.00;101163.20;109947;1239;63756;-73
2023/07/10 05:58:40;;;;;;;;;;;;;;;21.41;100.00;101162.83;110061;1238;72106;-73
2023/07/10 06:01:10;;;;;;;;;;;;;;;21.47;100.00;101164.92;110020;1238;59689;-74
2023/07/10 06:03:38;;;;;;;;;;;;;;;21.58;100.00;101167.06;109751;1238;73040;-73
2023/07/10 06:06:07;;;;;;;;;;;;;;;21.56;100.00;101167.66;110086;1239;57777;-74
2023/07/10 06:08:37;;;;;;;;;;;;;;;21.64;100.00;101163.08;110047;1237;60693;-74
2023/07/10 06:11:06;;;;;;;;;;;;;;;21.69;100.00;101160.53;110022;1238;64795;-74
2023/07/10 06:13:35;;;;;;;;;;;;;;;21.77;100.00;101157.92;110041;1237;60933;-74
2023/07/10 06:16:07;;;;;;;;;;;;;;;21.87;100.00;101159.42;110063;1237;59884;-74
2023/07/10 06:18:38;;;;;;;;;;;;;;;21.97;100.00;101156.64;110039;1237;63220;-74
2023/07/10 06:21:09;;;;;;;;;;;;;;;22.06;100.00;101158.16;109937;1241;62837;-74
2023/07/10 06:23:38;;;;;;;;;;;;;;;22.07;100.00;101153.95;110025;1238;61572;-74
2023/07/10 06:26:07;;;;;;;;;;;;;;;22.15;100.00;101149.09;109824;1238;73770;-73
2023/07/10 06:28:36;;;;;;;;;;;;;;;22.22;100.00;101146.35;109930;1238;72485;-74
2023/07/10 06:31:08;;;;;;;;;;;;;;;22.34;100.00;101143.05;110055;1238;59690;-74
2023/07/10 06:33:37;;;;;;;;;;;;;;;22.41;100.00;101141.46;110104;1238;65083;-73
2023/07/10 06:36:07;;;;;;;;;;;;;;;22.49;100.00;101142.41;109998;1241;57730;-74
2023/07/10 06:38:36;;;;;;;;;;;;;;;22.60;100.00;101135.22;110084;1237;58875;-73
2023/07/10 06:41:05;;;;;;;;;;;;;;;22.67;100.00;101135.27;110098;1238;71992;-73
2023/07/10 06:43:35;;;;;;;;;;;;;;;22.80;100.00;101134.35;110082;1239;73021;-73
2023/07/10 06:46:03;;;;;;;;;;;;;;;22.87;100.00;101133.17;110028;1238;70771;-73
2023/07/10 06:48:33;;;;;;;;;;;;;;;23.03;100.00;101135.20;109991;1237;63180;-73
2023/07/10 06:51:04;;;;;;;;;;;;;;;23.07;100.00;101131.00;109923;1237;57747;-73
2023/07/10 06:53:34;;;;;;;;;;;;;;;23.20;100.00;101127.74;109853;1237;60042;-73
2023/07/10 06:56:03;;;;;;;;;;;;;;;23.20;99.62;101128.85;109964;1238;62456;-73
2023/07/10 06:58:33;;;;;;;;;;;;;;;23.23;100.00;101129.17;109941;1238;61884;-73
2023/07/10 07:01:02;;;;;;;;;;;;;;;23.26;98.51;101128.49;109933;1238;70468;-73
2023/07/10 07:03:31;;;;;;;;;;;;;;;23.34;99.77;101137.09;109808;1237;74579;-73
2023/07/10 07:06:04;;;;;;;;;;;;;;;23.36;98.53;101131.17;109810;1238;57465;-73
2023/07/10 07:08:33;;;;;;;;;;;;;;;23.43;99.86;101137.45;109835;1237;60852;-73
2023/07/10 07:11:02;;;;;;;;;;;;;;;23.55;97.59;101139.37;109943;1239;63383;-73
2023/07/10 07:13:30;;;;;;;;;;;;;;;23.51;96.83;101139.69;110037;1237;71438;-74
2023/07/10 07:15:59;;;;;;;;;;;;;;;23.60;96.87;101140.44;110076;1237;60882;-74
2023/07/10 07:18:28;;;;;;;;;;;;;;;23.73;94.89;101140.86;109948;1239;62523;-73
2023/07/10 07:20:57;;;;;;;;;;;;;;;23.84;93.04;101146.35;110010;1238;60202;-73
2023/07/10 07:23:27;;;;;;;;;;;;;;;23.88;93.30;101139.13;110019;1238;57936;-73
2023/07/10 07:25:57;;;;;;;;;;;;;;;23.88;95.14;101141.70;109971;1238;73476;-73
2023/07/10 07:28:25;;;;;;;;;;;;;;;23.97;95.91;101140.02;109826;1238;71964;-73
2023/07/10 07:31:01;;;;;;;;;;;;;;;23.99;95.22;101138.63;110020;1238;59706;-73
2023/07/10 07:33:29;;;;;;;;;;;;;;;24.04;94.62;101132.69;109759;1238;74415;-73
2023/07/10 07:36:00;;;;;;;;;;;;;;;24.11;93.76;101135.73;109998;1241;57844;-73
2023/07/10 07:38:29;;;;;;;;;;;;;;;24.17;91.44;101136.81;109707;1238;359550;-72
2023/07/10 07:40:59;;;;;;;;;;;;;;;24.25;92.21;101132.66;110060;1238;62559;-74
2023/07/10 07:43:28;;;;;;;;;;;;;;;24.38;90.91;101122.34;109968;1238;71768;-72
2023/07/10 07:45:57;;;;;;;;;;;;;;;24.50;88.40;101122.38;109998;1238;59475;-73
2023/07/10 07:48:26;;;;;;;;;;;;;;;24.56;80.69;101123.61;110024;1238;63266;-72
2023/07/10 07:51:00;;;;;;;;;;;;;;;24.56;77.58;101124.31;109769;1242;57401;-73
2023/07/10 07:53:35;;;;;;;;;;;;;;;24.62;77.67;101123.75;109706;1242;57822;-73
2023/07/10 07:56:04;;;;;;;;;;;;;;;24.73;76.34;101122.88;109974;1238;62759;-73
2023/07/10 07:58:33;;;;;;;;;;;;;;;24.80;73.72;101118.26;110079;1238;61886;-73
2023/07/10 08:01:02;;;;;;;;;;;;;;;24.92;69.85;101122.86;110093;1238;70472;-72
2023/07/10 08:03:32;;;;;;;;;;;;;;;24.95;69.31;101113.38;109954;1238;74287;-72
2023/07/10 08:06:02;;;;;;;;;;;;;;;24.98;67.87;101111.30;109995;1238;57039;-72
2023/07/10 08:08:32;;;;;;;;;;;;;;;25.05;65.03;101107.80;110069;1238;60303;-72
2023/07/10 08:11:00;;;;;;;;;;;;;;;24.92;63.98;101102.26;109997;1238;73163;-71
2023/07/10 08:13:30;;;;;;;;;;;;;;;25.09;65.91;101099.59;110101;1238;62390;-72
2023/07/10 08:15:58;;;;;;;;;;;;;;;25.00;66.96;101103.93;110083;1237;70481;-72
2023/07/10 08:18:27;;;;;;;;;;;;;;;24.98;64.12;101098.27;110090;1239;62982;-72
2023/07/10 08:21:03;;;;;;;;;;;;;;;24.89;62.02;101100.55;109965;1240;57218;-72
2023/07/10 08:23:32;;;;;;;;;;;;;;;24.87;60.15;101097.75;109867;1241;57779;-72
2023/07/10 08:26:01;;;;;;;;;;;;;;;24.89;61.01;101094.64;109950;1238;73329;-73
2023/07/10 08:28:30;;;;;;;;;;;;;;;25.03;61.01;101089.23;110040;1239;61736;-74
2023/07/10 08:30:59;;;;;;;;;;;;;;;25.15;59.61;101096.23;109748;1238;71140;-72
2023/07/10 08:33:28;;;;;;;;;;;;;;;25.16;59.74;101094.75;109881;1238;74466;-72
2023/07/10 08:36:05;;;;;;;;;;;;;;;25.33;60.74;101092.73;110074;1238;61799;-72
2023/07/10 08:38:35;;;;;;;;;;;;;;;25.53;60.83;101089.50;109999;1241;57164;-72
2023/07/10 08:41:23;;;;;;;;;;;;;;;25.63;59.58;101087.77;110052;1238;63058;-72
2023/07/10 08:43:52;;;;;;;;;;;;;;;25.61;57.98;101093.60;110000;1241;61457;-72
2023/07/10 08:46:24;;;;;;;;;;;;;;;25.57;56.36;101094.21;110093;1238;59934;-71
2023/07/10 08:49:05;;;;;;;;;;;;;;;25.67;55.09;101081.78;109868;1238;74361;-72
2023/07/10 08:51:46;;;;;;;;;;;;;;;25.84;53.21;101088.05;109972;1238;61505;-72
2023/07/10 08:54:19;;;;;;;;;;;;;;;26.05;51.31;101080.73;110085;1238;60859;-74
2023/07/10 08:56:50;;;;;;;;;;;;;;;26.07;51.26;101087.70;110031;1240;63598;-74
2023/07/10 08:59:50;;;;;;;;;;;;;;;26.19;50.77;101089.45;110023;1238;61516;-71
2023/07/10 09:02:43;;;;;;;;;;;;;;;26.29;50.99;101096.01;110102;1238;59763;-72
2023/07/10 09:05:27;;;;;;;;;;;;;;;26.43;50.91;101094.92;110053;1240;63025;-72
2023/07/10 09:08:02;;;;;;;;;;;;;;;26.42;50.28;101103.23;109969;1241;57350;-72
2023/07/10 09:10:38;;;;;;;;;;;;;;;26.37;49.60;101097.75;110069;1237;60808;-72
2023/07/10 09:13:13;;;;;;;;;;;;;;;26.49;50.01;101103.33;109931;1241;63728;-72
2023/07/10 09:15:49;;;;;;;;;;;;;;;26.63;49.86;101100.08;109949;1238;72076;-72
2023/07/10 09:18:40;;;;;;;;;;;;;;;26.62;50.78;101105.02;109939;1238;71570;-72
2023/07/10 09:21:18;;;;;;;;;;;;;;;26.45;50.65;101109.83;110074;1239;64001;-71
2023/07/10 09:23:47;;;;;;;;;;;;;;;26.37;50.41;101115.48;109980;1238;60366;-72
2023/07/10 09:26:20;;;;;;;;;;;;;;;26.22;50.63;101109.60;109753;1238;60808;-73
2023/07/10 09:29:09;;;;;;;;;;;;;;;26.23;50.51;101113.51;109930;1241;63544;-72
2023/07/10 09:31:44;;;;;;;;;;;;;;;26.20;49.52;101106.36;109964;1241;62606;-72
2023/07/10 09:34:13;;;;;;;;;;;;;;;26.26;48.95;101093.61;110074;1241;59204;-72
2023/07/10 09:36:41;;;;;;;;;;;;;;;26.34;49.97;101103.59;110064;1239;64968;-73
2023/07/10 09:39:12;;;;;;;;;;;;;;;26.26;50.41;101106.46;110081;1238;57636;-72
2023/07/10 09:41:42;;;;;;;;;;;;;;;26.11;49.88;101102.20;109834;1242;57786;-73
2023/07/10 09:44:21;;;;;;;;;;;;;;;26.11;50.51;101092.06;109687;1243;63524;-71
2023/07/10 09:46:49;;;;;;;;;;;;;;;26.29;51.31;101091.89;109854;1238;63407;-72
2023/07/10 09:49:23;;;;;;;;;;;;;;;26.44;50.45;101089.19;109897;1242;60241;-73
2023/07/10 09:51:59;;;;;;;;;;;;;;;26.60;49.70;101093.98;109978;1240;72990;-73
2023/07/10 09:54:36;;;;;;;;;;;;;;;26.68;49.87;101092.78;109829;1243;61922;-72
2023/07/10 09:57:14;;;;;;;;;;;;;;;26.76;49.28;101100.81;109906;1242;57225;-72
2023/07/10 09:59:50;;;;;;;;;;;;;;;26.72;47.80;101092.36;110106;1238;65447;-73
2023/07/10 10:02:32;;;;;;;;;;;;;;;26.66;45.65;101085.48;109873;1242;63675;-73
2023/07/10 10:05:04;;;;;;;;;;;;;;;26.61;46.75;101081.34;109986;1238;70976;-74
2023/07/10 10:07:45;;;;;;;;;;;;;;;26.73;46.20;101075.60;110083;1237;62856;-71
2023/07/10 10:10:34;;;;;;;;;;;;;;;26.74;46.74;101074.52;109975;1239;57672;-72
2023/07/10 10:13:20;;;;;;;;;;;;;;;26.85;46.93;101066.66;110026;1240;60585;-74
2023/07/10 10:16:03;;;;;;;;;;;;;;;26.97;46.42;101062.14;110015;1237;63491;-73
2023/07/10 10:19:01;;;;;;;;;;;;;;;26.76;46.25;101057.68;110109;1238;72494;-72
2023/07/10 10:21:33;;;;;;;;;;;;;;;26.82;46.57;101059.08;109782;1238;69583;-73
2023/07/10 10:24:07;;;;;;;;;;;;;;;26.93;45.75;101053.23;110055;1240;62810;-72
2023/07/10 10:27:00;;;;;;;;;;;;;;;27.14;46.11;101046.97;109959;1239;58359;-73
2023/07/10 10:29:41;;;;;;;;;;;;;;;27.20;45.70;101046.71;110097;1238;57354;-73
2023/07/10 10:32:28;;;;;;;;;;;;;;;27.06;45.54;101052.77;110101;1237;73523;-72
2023/07/10 10:35:00;;;;;;;;;;;;;;;27.20;46.62;101052.39;110065;1237;72508;-71
2023/07/10 10:38:14;;;;;;;;;;;;;;;27.58;44.64;101051.65;110078;1238;60432;-73
2023/07/10 10:40:54;;;;;;;;;;;;;;;27.97;44.48;101049.70;109632;1237;63476;-73
2023/07/10 10:43:31;;;;;;;;;;;;;;;28.15;43.48;101057.13;109987;1237;61180;-74
2023/07/10 10:46:37;;;;;;;;;;;;;;;28.07;42.56;101047.70;110085;1239;57724;-73
2023/07/10 10:49:08;;;;;;;;;;;;;;;28.38;42.72;101033.09;110053;1237;63799;-73
2023/07/10 10:52:06;;;;;;;;;;;;;;;28.65;42.10;101032.80;109954;1239;61360;-71
2023/07/10 10:54:45;;;;;;;;;;;;;;;28.75;40.68;101034.55;109870;1238;58947;-72
2023/07/10 10:57:41;;;;;;;;;;;;;;;28.78;40.67;101029.69;109926;1237;73872;-72
2023/07/10 11:00:13;;;;;;;;;;;;;;;28.66;41.98;101021.58;109933;1241;57764;-72
2023/07/10 11:03:10;;;;;;;;;;;;;;;28.60;42.21;101023.55;110108;1238;60967;-72
2023/07/10 11:05:45;;;;;;;;;;;;;;;29.04;41.80;101007.20;110055;1238;73316;-73
2023/07/10 11:08:22;;;;;;;;;;;;;;;29.70;40.67;101018.74;110046;1237;61916;-72
2023/07/10 11:10:55;;;;;;;;;;;;;;;29.94;39.25;101015.49;109881;1238;59226;-73
2023/07/10 11:13:35;;;;;;;;;;;;;;;29.80;38.85;101008.83;110045;1239;72690;-74
2023/07/10 11:16:06;;;;;;;;;;;;;;;29.79;38.67;101013.75;109982;1238;57668;-73
2023/07/10 11:18:35;;;;;;;;;;;;;;;29.69;38.90;101010.49;109983;1237;58418;-72
2023/07/10 11:21:04;;;;;;;;;;;;;;;29.60;38.99;101002.52;110086;1237;63478;-72
2023/07/10 11:23:44;;;;;;;;;;;;;;;29.65;38.46;101007.65;109847;1238;63249;-72
2023/07/10 11:26:31;;;;;;;;;;;;;;;29.63;38.16;101009.64;110045;1239;69393;-72
2023/07/10 11:29:16;;;;;;;;;;;;;;;29.36;38.87;101003.90;109942;1239;73775;-72
2023/07/10 11:31:52;;;;;;;;;;;;;;;29.19;39.75;100996.06;109768;1241;57208;-73
2023/07/10 11:34:29;;;;;;;;;;;;;;;29.21;39.45;101002.35;109814;1239;60889;-73
2023/07/10 11:36:58;;;;;;;;;;;;;;;29.32;39.73;100995.64;109938;1238;63151;-72
2023/07/10 11:39:36;;;;;;;;;;;;;;;29.34;40.93;100990.98;109891;1240;61639;-74
2023/07/10 11:42:13;;;;;;;;;;;;;;;29.71;40.52;100990.14;109856;1238;59739;-72
2023/07/10 11:44:46;;;;;;;;;;;;;;;30.14;40.46;100989.65;109821;1238;63128;-72
2023/07/10 11:47:22;;;;;;;;;;;;;;;30.55;38.61;100984.55;109818;1239;61611;-72
2023/07/10 11:49:51;;;;;;;;;;;;;;;30.53;38.25;100989.20;109777;1238;57613;-72
2023/07/10 11:52:19;;;;;;;;;;;;;;;30.63;38.25;100989.33;109839;1238;73308;-72
2023/07/10 11:54:48;;;;;;;;;;;;;;;31.01;37.55;100990.37;109973;1238;62234;-73
2023/07/10 11:57:43;;;;;;;;;;;;;;;31.35;37.27;100993.29;109967;1239;69224;-72
2023/07/10 12:00:14;;;;;;;;;;;;;;;30.46;39.10;100988.71;109981;1238;74295;-72
2023/07/10 12:02:55;;;;;;;;;;;;;;;31.87;36.69;100990.00;109961;1241;59439;-73
2023/07/10 12:05:37;;;;;;;;;;;;;;;31.53;34.46;100989.30;109839;1238;60375;-73
2023/07/10 12:08:12;;;;;;;;;;;;;;;31.28;33.49;100982.69;109859;1238;63703;-74
2023/07/10 12:10:48;;;;;;;;;;;;;;;31.37;34.17;100976.43;109843;1238;71103;-74
2023/07/10 12:13:30;;;;;;;;;;;;;;;31.50;34.21;100976.50;109888;1238;60018;-74
2023/07/10 12:16:08;;;;;;;;;;;;;;;31.55;33.95;100969.45;109967;1239;73843;-74
2023/07/10 12:18:39;;;;;;;;;;;;;;;31.57;34.07;100968.63;109915;1239;57717;-74
2023/07/10 12:21:15;;;;;;;;;;;;;;;30.38;35.19;100974.09;109905;1238;61553;-75
2023/07/10 12:23:59;;;;;;;;;;;;;;;30.44;35.48;100977.24;109614;1238;74147;-74
2023/07/10 12:26:28;;;;;;;;;;;;;;;30.64;34.82;100962.15;109867;1238;62098;-74
2023/07/10 12:29:01;;;;;;;;;;;;;;;30.95;33.36;100970.74;109988;1237;70263;-73
2023/07/10 12:31:29;;;;;;;;;;;;;;;31.13;33.44;100966.79;109619;1237;72851;-74
2023/07/10 12:34:00;;;;;;;;;;;;;;;31.13;33.73;100969.42;109962;1239;57607;-71
2023/07/10 12:36:35;;;;;;;;;;;;;;;30.85;33.78;100966.44;109840;1238;60260;-73
2023/07/10 12:39:07;;;;;;;;;;;;;;;30.96;33.88;100966.02;109682;1238;73369;-73
2023/07/10 12:41:40;;;;;;;;;;;;;;;31.06;33.71;100954.89;109742;1238;70545;-72
2023/07/10 12:44:22;;;;;;;;;;;;;;;31.89;33.53;100952.20;109781;1238;60395;-73
2023/07/10 12:46:57;;;;;;;;;;;;;;;32.28;32.46;100956.49;109650;1238;63742;-73
2023/07/10 12:49:28;;;;;;;;;;;;;;;32.72;30.57;100954.39;109759;1239;60348;-75